createdAt,value
2023-11-24T00:00:55.118Z,73.80
2023-11-24T00:03:23.098Z,73.80
2023-11-24T00:05:51.062Z,73.90
2023-11-24T00:08:18.902Z,73.80
2023-11-24T00:10:48.623Z,69.00
2023-11-24T00:13:17.702Z,64.20
2023-11-24T00:15:46.542Z,69.90
2023-11-24T00:18:14.877Z,70.90
2023-11-24T00:20:42.814Z,69.40
2023-11-24T00:23:10.682Z,69.20
2023-11-24T00:25:38.858Z,70.40
2023-11-24T00:28:08.076Z,70.40
2023-11-24T00:30:36.207Z,70.40
2023-11-24T00:33:04.242Z,70.40
2023-11-24T00:35:32.322Z,70.40
2023-11-24T00:38:00.269Z,70.40
2023-11-24T00:40:28.069Z,70.40
2023-11-24T00:42:56.314Z,70.40
2023-11-24T00:45:26.693Z,70.50
2023-11-24T00:47:55.561Z,70.40
2023-11-24T00:50:23.637Z,70.40
2023-11-24T00:52:51.550Z,70.40
2023-11-24T00:55:19.757Z,70.40
2023-11-24T00:57:47.673Z,70.40
2023-11-24T01:00:16.727Z,70.40
2023-11-24T01:02:46.009Z,70.40
2023-11-24T01:05:13.985Z,70.40
2023-11-24T01:07:42.277Z,70.40
2023-11-24T01:10:10.909Z,70.40
2023-11-24T01:12:39.618Z,70.50
2023-11-24T01:15:09.647Z,70.40
2023-11-24T01:17:37.757Z,70.40
2023-11-24T01:20:10.814Z,70.40
2023-11-24T01:22:38.984Z,70.40
2023-11-24T01:25:08.887Z,70.50
2023-11-24T01:27:36.912Z,70.50
2023-11-24T01:30:05.406Z,70.60
2023-11-24T01:32:33.296Z,70.50
2023-11-24T01:35:01.171Z,70.50
2023-11-24T01:37:30.425Z,70.60
2023-11-24T01:39:58.392Z,70.60
2023-11-24T01:42:26.747Z,70.60
2023-11-24T01:44:54.756Z,70.50
2023-11-24T01:47:23.215Z,70.40
2023-11-24T01:49:51.343Z,70.30
2023-11-24T01:52:20.797Z,70.20
2023-11-24T01:54:50.289Z,70.20
2023-11-24T01:57:18.455Z,70.20
2023-11-24T01:59:46.369Z,70.20
2023-11-24T02:02:16.364Z,70.20
2023-11-24T02:04:44.119Z,70.20
2023-11-24T02:07:12.589Z,70.10
2023-11-24T02:09:41.042Z,70.00
2023-11-24T02:12:10.672Z,69.90
2023-11-24T02:14:38.817Z,69.90
2023-11-24T02:17:06.751Z,70.00
2023-11-24T02:19:34.724Z,69.90
2023-11-24T02:22:02.668Z,70.00
2023-11-24T02:24:32.156Z,70.00
2023-11-24T02:27:00.865Z,70.00
2023-11-24T02:29:29.132Z,70.10
2023-11-24T02:31:56.960Z,70.10
2023-11-24T02:34:24.862Z,70.10
2023-11-24T02:36:52.901Z,70.00
2023-11-24T02:39:20.713Z,70.10
2023-11-24T02:41:49.991Z,70.10
2023-11-24T02:44:17.922Z,70.10
2023-11-24T02:46:46.296Z,70.10
2023-11-24T02:49:14.193Z,70.10
2023-11-24T02:51:42.157Z,70.10
2023-11-24T02:54:10.019Z,70.10
2023-11-24T02:56:38.616Z,70.10
2023-11-24T02:59:07.869Z,70.00
2023-11-24T03:01:36.051Z,70.00
2023-11-24T03:04:04.075Z,70.00
2023-11-24T03:06:32.104Z,70.00
2023-11-24T03:09:01.916Z,69.90
2023-11-24T03:11:31.393Z,70.00
2023-11-24T03:13:59.370Z,70.00
2023-11-24T03:16:28.571Z,70.00
2023-11-24T03:18:56.780Z,69.90
2023-11-24T03:21:24.788Z,69.90
2023-11-24T03:23:52.726Z,69.80
2023-11-24T03:26:20.588Z,69.70
2023-11-24T03:28:48.433Z,69.50
2023-11-24T03:31:16.408Z,69.60
2023-11-24T03:33:45.666Z,69.40
2023-11-24T03:36:13.524Z,69.40
2023-11-24T03:38:41.414Z,69.50
2023-11-24T03:41:09.299Z,69.40
2023-11-24T03:43:37.177Z,69.40
2023-11-24T03:46:06.166Z,69.50
2023-11-24T03:48:34.137Z,69.50
2023-11-24T03:51:03.559Z,69.40
2023-11-24T03:53:31.423Z,69.50
2023-11-24T03:55:59.547Z,69.40
2023-11-24T03:58:27.981Z,69.50
2023-11-24T04:00:55.870Z,69.40
2023-11-24T04:03:23.744Z,69.40
2023-11-24T04:05:51.582Z,69.40
2023-11-24T04:08:21.034Z,69.50
2023-11-24T04:10:48.876Z,69.40
2023-11-24T04:13:17.013Z,69.40
2023-11-24T04:15:45.065Z,69.30
2023-11-24T04:18:13.193Z,69.30
2023-11-24T04:20:41.019Z,69.20
2023-11-24T04:23:09.285Z,69.20
2023-11-24T04:25:38.528Z,69.20
2023-11-24T04:28:06.659Z,69.20
2023-11-24T04:30:34.764Z,69.10
2023-11-24T04:33:03.361Z,69.10
2023-11-24T04:35:31.324Z,69.00
2023-11-24T04:37:59.184Z,69.60
2023-11-24T04:40:27.264Z,68.90
2023-11-24T04:42:56.729Z,69.00
2023-11-24T04:45:24.585Z,68.90
2023-11-24T04:47:52.689Z,68.90
2023-11-24T04:50:20.649Z,68.90
2023-11-24T04:52:48.500Z,68.90
2023-11-24T04:55:16.634Z,68.90
2023-11-24T04:57:50.397Z,69.60
2023-11-24T05:00:20.785Z,69.00
2023-11-24T05:02:50.476Z,69.00
2023-11-24T05:05:18.977Z,69.00
2023-11-24T05:07:46.865Z,69.00
2023-11-24T05:10:14.752Z,68.60
2023-11-24T05:12:42.738Z,68.50
2023-11-24T05:15:11.164Z,68.20
2023-11-24T05:17:40.706Z,68.00
2023-11-24T05:20:09.675Z,67.80
2023-11-24T05:22:37.775Z,65.40
2023-11-24T05:25:06.570Z,68.50
2023-11-24T05:27:34.490Z,64.60
2023-11-24T05:30:03.624Z,65.90
2023-11-24T05:32:31.770Z,65.90
2023-11-24T05:35:01.040Z,66.30
2023-11-24T05:37:29.108Z,66.40
2023-11-24T05:39:57.157Z,64.00
2023-11-24T05:42:25.060Z,65.40
2023-11-24T05:44:53.115Z,65.80
2023-11-24T05:47:21.521Z,65.70
2023-11-24T05:49:51.911Z,65.60
2023-11-24T05:52:21.457Z,65.60
2023-11-24T05:54:49.822Z,65.50
2023-11-24T05:57:17.726Z,65.40
2023-11-24T05:59:45.565Z,65.40
2023-11-24T06:02:14.371Z,65.50
2023-11-24T06:04:42.306Z,65.20
2023-11-24T06:07:10.411Z,65.10
2023-11-24T06:09:39.705Z,65.00
2023-11-24T06:12:08.590Z,64.70
2023-11-24T06:14:36.447Z,63.30
2023-11-24T06:17:04.323Z,64.60
2023-11-24T06:19:32.401Z,64.50
2023-11-24T06:22:00.871Z,62.80
2023-11-24T06:24:28.827Z,69.00
2023-11-24T06:26:58.248Z,69.40
2023-11-24T06:29:26.574Z,68.40
2023-11-24T06:31:54.429Z,67.70
2023-11-24T06:34:22.962Z,68.00
2023-11-24T06:36:51.380Z,66.70
2023-11-24T06:39:21.186Z,67.30
2023-11-24T06:41:49.171Z,67.40
2023-11-24T06:44:18.345Z,67.20
2023-11-24T06:46:46.328Z,67.10
2023-11-24T06:49:14.213Z,67.00
2023-11-24T06:51:42.322Z,67.00
2023-11-24T06:54:10.187Z,66.80
2023-11-24T06:56:38.008Z,66.60
2023-11-24T06:59:05.902Z,66.60
2023-11-24T07:01:36.474Z,66.40
2023-11-24T07:04:05.118Z,66.30
2023-11-24T07:06:33.179Z,66.20
2023-11-24T07:09:00.999Z,69.50
2023-11-24T07:11:28.867Z,67.30
2023-11-24T07:13:56.915Z,67.30
2023-11-24T07:16:25.009Z,67.30
2023-11-24T07:18:54.725Z,67.30
2023-11-24T07:21:22.804Z,67.00
2023-11-24T07:23:50.650Z,67.00
2023-11-24T07:26:18.909Z,66.70
2023-11-24T07:28:46.857Z,63.50
2023-11-24T07:31:16.408Z,61.20
2023-11-24T07:33:44.726Z,57.30
2023-11-24T07:36:13.943Z,59.80
2023-11-24T07:38:41.820Z,58.60
2023-11-24T07:41:10.614Z,57.30
2023-11-24T07:43:38.749Z,57.90
2023-11-24T07:46:08.574Z,58.60
2023-11-24T07:48:36.548Z,58.70
2023-11-24T07:51:06.596Z,58.40
2023-11-24T07:53:35.600Z,58.30
2023-11-24T07:56:05.099Z,58.30
2023-11-24T07:58:33.289Z,58.00
2023-11-24T08:01:04.119Z,58.30
2023-11-24T08:03:34.127Z,58.10
2023-11-24T08:06:07.508Z,58.20
2023-11-24T08:08:37.201Z,58.00
2023-11-24T08:11:05.896Z,58.00
2023-11-24T08:13:33.781Z,58.00
2023-11-24T08:16:02.138Z,58.10
2023-11-24T08:18:30.066Z,58.50
2023-11-24T08:20:59.712Z,58.50
2023-11-24T08:23:28.625Z,58.70
2023-11-24T08:25:57.837Z,58.80
2023-11-24T08:28:25.671Z,58.90
2023-11-24T08:30:56.223Z,58.90
2023-11-24T08:33:24.328Z,59.00
2023-11-24T08:35:52.148Z,58.90
2023-11-24T08:38:19.995Z,58.90
2023-11-24T08:40:47.817Z,59.00
2023-11-24T08:43:17.439Z,59.10
2023-11-24T08:45:45.444Z,59.10
2023-11-24T08:48:13.513Z,59.20
2023-11-24T08:50:41.381Z,59.20
2023-11-24T08:53:09.246Z,59.00
2023-11-24T08:55:37.151Z,59.20
2023-11-24T08:58:06.016Z,59.00
2023-11-24T09:00:36.302Z,58.80
2023-11-24T09:03:06.282Z,59.00
2023-11-24T09:05:34.387Z,60.90
2023-11-24T09:08:02.236Z,64.20
2023-11-24T09:10:30.365Z,65.30
2023-11-24T09:12:58.800Z,65.90
2023-11-24T09:15:26.883Z,65.80
2023-11-24T09:17:57.663Z,65.90
2023-11-24T09:20:26.440Z,65.90
2023-11-24T09:22:54.636Z,65.70
2023-11-24T09:25:22.848Z,66.10
2023-11-24T09:27:50.798Z,66.40
2023-11-24T09:30:18.988Z,66.50
2023-11-24T09:32:48.792Z,66.70
2023-11-24T09:35:18.160Z,66.40
2023-11-24T09:37:46.110Z,66.20
2023-11-24T09:40:17.318Z,66.00
2023-11-24T09:42:47.063Z,65.80
2023-11-24T09:45:18.346Z,65.60
2023-11-24T09:47:50.283Z,65.20
2023-11-24T09:50:24.526Z,65.10
2023-11-24T09:52:53.439Z,65.00
2023-11-24T09:55:23.820Z,64.70
2023-11-24T09:57:52.858Z,64.40
2023-11-24T10:00:21.724Z,64.20
2023-11-24T10:02:49.965Z,64.40
2023-11-24T10:05:20.867Z,64.50
2023-11-24T10:07:51.839Z,64.40
2023-11-24T10:10:24.792Z,64.20
2023-11-24T10:12:54.961Z,64.40
2023-11-24T10:15:23.948Z,64.30
2023-11-24T10:17:52.215Z,64.10
2023-11-24T10:20:23.708Z,64.00
2023-11-24T10:22:52.435Z,59.50
2023-11-24T10:25:22.075Z,56.40
2023-11-24T10:27:50.880Z,56.40
2023-11-24T10:30:20.033Z,56.10
2023-11-24T10:32:49.774Z,53.10
2023-11-24T10:35:17.954Z,51.30
2023-11-24T10:37:49.453Z,53.80
2023-11-24T10:40:21.793Z,54.40
2023-11-24T10:42:51.783Z,54.10
2023-11-24T10:45:21.169Z,54.20
2023-11-24T10:48:03.277Z,53.90
2023-11-24T10:50:33.735Z,52.90
2023-11-24T10:53:09.075Z,51.70
2023-11-24T10:55:38.960Z,50.60
2023-11-24T10:58:07.249Z,50.30
2023-11-24T11:00:37.923Z,50.50
2023-11-24T11:03:07.619Z,51.10
2023-11-24T11:05:51.249Z,51.80
2023-11-24T11:08:30.099Z,52.00
2023-11-24T11:11:22.313Z,52.20
2023-11-24T11:13:53.096Z,52.10
2023-11-24T11:16:21.990Z,51.00
2023-11-24T11:18:50.835Z,50.00
2023-11-24T11:21:37.415Z,50.20
2023-11-24T11:24:09.706Z,51.30
2023-11-24T11:26:49.101Z,51.70
2023-11-24T11:29:17.371Z,52.20
2023-11-24T11:31:48.005Z,52.90
2023-11-24T11:34:18.363Z,53.30
2023-11-24T11:37:06.576Z,53.40
2023-11-24T11:39:48.634Z,53.80
2023-11-24T11:42:17.530Z,54.40
2023-11-24T11:44:48.496Z,54.80
2023-11-24T11:47:21.371Z,54.80
2023-11-24T11:49:55.189Z,54.10
2023-11-24T11:52:28.271Z,52.80
2023-11-24T11:54:59.458Z,53.00
2023-11-24T11:57:29.116Z,53.30
2023-11-24T11:59:57.305Z,54.00
2023-11-24T12:02:25.617Z,53.30
2023-11-24T12:04:53.758Z,53.10
2023-11-24T12:07:23.609Z,49.70
2023-11-24T12:09:51.409Z,47.80
2023-11-24T12:12:23.759Z,48.40
2023-11-24T12:14:55.357Z,49.90
2023-11-24T12:17:24.841Z,49.00
2023-11-24T12:19:53.394Z,50.60
2023-11-24T12:22:22.403Z,51.40
2023-11-24T12:24:51.883Z,51.60
2023-11-24T12:27:22.127Z,52.50
2023-11-24T12:29:52.357Z,52.90
2023-11-24T12:32:23.565Z,52.90
2023-11-24T12:34:52.575Z,53.50
2023-11-24T12:37:20.514Z,54.20
2023-11-24T12:39:48.605Z,54.80
2023-11-24T12:42:18.945Z,54.40
2023-11-24T12:44:51.270Z,53.70
2023-11-24T12:47:41.651Z,54.20
2023-11-24T12:50:13.849Z,55.00
2023-11-24T12:52:45.211Z,56.00
2023-11-24T12:55:13.876Z,56.70
2023-11-24T12:57:43.990Z,57.40
2023-11-24T13:00:17.432Z,57.80
2023-11-24T13:02:46.887Z,57.60
2023-11-24T13:05:17.321Z,58.50
2023-11-24T13:07:45.895Z,58.60
2023-11-24T13:10:14.024Z,59.40
2023-11-24T13:12:43.201Z,55.30
2023-11-24T13:15:13.995Z,54.50
2023-11-24T13:17:41.994Z,56.40
2023-11-24T13:20:12.610Z,57.50
2023-11-24T13:22:40.853Z,57.60
2023-11-24T13:25:10.410Z,57.70
2023-11-24T13:27:38.583Z,57.60
2023-11-24T13:30:10.650Z,57.50
2023-11-24T13:32:41.525Z,57.40
2023-11-24T13:35:11.784Z,57.10
2023-11-24T13:37:40.274Z,57.40
2023-11-24T13:40:10.487Z,56.10
2023-11-24T13:42:38.654Z,56.70
2023-11-24T13:45:08.435Z,56.90
2023-11-24T13:47:36.957Z,57.00
2023-11-24T13:50:08.692Z,57.10
2023-11-24T13:52:36.580Z,57.00
2023-11-24T13:55:07.497Z,57.10
2023-11-24T13:57:36.805Z,57.30
2023-11-24T14:00:08.215Z,57.80
2023-11-24T14:02:37.286Z,57.60
2023-11-24T14:05:09.861Z,57.80
2023-11-24T14:07:37.796Z,56.20
2023-11-24T14:10:07.402Z,54.50
2023-11-24T14:12:36.300Z,56.20
2023-11-24T14:15:05.806Z,56.10
2023-11-24T14:17:36.995Z,56.30
2023-11-24T14:20:08.221Z,56.20
2023-11-24T14:22:37.454Z,56.40
2023-11-24T14:25:07.862Z,56.20
2023-11-24T14:27:36.203Z,55.70
2023-11-24T14:30:06.571Z,55.60
2023-11-24T14:32:34.647Z,55.50
2023-11-24T14:35:02.599Z,55.40
2023-11-24T14:37:31.841Z,55.50
2023-11-24T14:40:01.435Z,56.10
2023-11-24T14:42:29.846Z,56.50
2023-11-24T14:44:57.721Z,56.80
2023-11-24T14:47:27.899Z,57.00
2023-11-24T14:49:55.791Z,57.50
2023-11-24T14:52:24.599Z,57.40
2023-11-24T14:54:56.488Z,57.10
2023-11-24T14:57:24.448Z,56.90
2023-11-24T14:59:55.890Z,56.60
2023-11-24T15:02:26.808Z,56.50
2023-11-24T15:04:54.966Z,56.40
2023-11-24T15:07:24.645Z,56.30
2023-11-24T15:09:53.930Z,56.00
2023-11-24T15:12:27.709Z,55.20
2023-11-24T15:14:56.488Z,56.00
2023-11-24T15:17:27.405Z,56.40
2023-11-24T15:19:55.250Z,56.50
2023-11-24T15:22:28.050Z,56.40
2023-11-24T15:24:59.568Z,57.30
2023-11-24T15:27:28.572Z,56.70
2023-11-24T15:29:56.451Z,56.70
2023-11-24T15:32:24.914Z,56.70
2023-11-24T15:34:54.225Z,58.10
2023-11-24T15:37:23.279Z,58.20
2023-11-24T15:39:57.719Z,58.50
2023-11-24T15:42:32.654Z,58.40
2023-11-24T15:45:01.578Z,58.60
2023-11-24T15:47:30.260Z,58.50
2023-11-24T15:50:00.059Z,58.20
2023-11-24T15:52:28.404Z,61.20
2023-11-24T15:54:56.666Z,59.10
2023-11-24T15:57:24.586Z,59.30
2023-11-24T15:59:57.680Z,59.30
2023-11-24T16:02:30.976Z,59.30
2023-11-24T16:04:59.253Z,59.50
2023-11-24T16:07:33.474Z,59.40
2023-11-24T16:10:11.455Z,59.40
2023-11-24T16:12:39.616Z,59.50
2023-11-24T16:15:16.924Z,59.60
2023-11-24T16:17:46.770Z,59.50
2023-11-24T16:20:14.842Z,59.40
2023-11-24T16:22:42.826Z,59.50
2023-11-24T16:25:11.323Z,60.10
2023-11-24T16:27:42.174Z,59.40
2023-11-24T16:30:12.020Z,59.50
2023-11-24T16:32:40.498Z,59.50
2023-11-24T16:35:10.082Z,59.50
2023-11-24T16:37:38.542Z,59.50
2023-11-24T16:40:09.836Z,59.50
2023-11-24T16:42:37.944Z,56.50
2023-11-24T16:45:07.516Z,56.80
2023-11-24T16:47:37.615Z,58.00
2023-11-24T16:50:08.884Z,58.20
2023-11-24T16:52:39.464Z,58.30
2023-11-24T16:55:09.207Z,62.70
2023-11-24T16:57:37.608Z,61.30
2023-11-24T17:00:07.488Z,62.10
2023-11-24T17:02:36.696Z,62.00
2023-11-24T17:05:04.848Z,61.80
2023-11-24T17:07:32.672Z,61.60
2023-11-24T17:10:00.662Z,61.60
2023-11-24T17:12:31.020Z,61.70
2023-11-24T17:14:59.132Z,61.70
2023-11-24T17:17:27.080Z,61.50
2023-11-24T17:19:56.454Z,61.50
2023-11-24T17:22:24.424Z,61.50
2023-11-24T17:24:52.726Z,64.30
2023-11-24T17:27:20.738Z,60.80
2023-11-24T17:29:48.692Z,61.40
2023-11-24T17:32:16.549Z,62.90
2023-11-24T17:34:44.493Z,63.20
2023-11-24T17:37:13.871Z,62.80
2023-11-24T17:39:42.735Z,62.60
2023-11-24T17:42:10.734Z,62.60
2023-11-24T17:44:39.010Z,62.50
2023-11-24T17:47:08.652Z,62.20
2023-11-24T17:49:37.383Z,62.20
2023-11-24T17:52:05.835Z,62.20
2023-11-24T17:54:35.467Z,62.10
2023-11-24T17:57:03.513Z,62.00
2023-11-24T17:59:31.351Z,62.10
2023-11-24T18:02:01.103Z,62.10
2023-11-24T18:04:29.460Z,62.10
2023-11-24T18:06:57.360Z,61.90
2023-11-24T18:09:25.845Z,61.90
2023-11-24T18:11:55.899Z,61.70
2023-11-24T18:14:23.879Z,61.60
2023-11-24T18:16:51.782Z,61.60
2023-11-24T18:19:19.705Z,61.50
2023-11-24T18:21:47.554Z,61.50
2023-11-24T18:24:17.224Z,61.50
2023-11-24T18:26:45.333Z,61.50
2023-11-24T18:29:15.295Z,61.40
2023-11-24T18:31:43.153Z,61.40
2023-11-24T18:34:12.594Z,61.20
2023-11-24T18:36:42.186Z,58.30
2023-11-24T18:39:13.333Z,59.30
2023-11-24T18:41:41.175Z,58.50
2023-11-24T18:44:09.111Z,57.80
2023-11-24T18:46:38.333Z,58.20
2023-11-24T18:49:06.416Z,58.70
2023-11-24T18:51:34.331Z,58.80
2023-11-24T18:54:02.429Z,58.70
2023-11-24T18:56:30.272Z,58.70
2023-11-24T18:58:58.107Z,58.70
2023-11-24T19:01:25.990Z,58.70
2023-11-24T19:03:55.265Z,58.80
2023-11-24T19:06:23.290Z,58.80
2023-11-24T19:08:51.967Z,58.80
2023-11-24T19:11:21.908Z,59.00
2023-11-24T19:13:49.600Z,58.90
2023-11-24T19:16:17.989Z,59.10
2023-11-24T19:18:45.954Z,59.00
2023-11-24T19:21:15.597Z,59.00
2023-11-24T19:23:43.570Z,59.10
2023-11-24T19:26:13.553Z,59.20
2023-11-24T19:28:41.702Z,59.40
2023-11-24T19:31:09.857Z,59.40
2023-11-24T19:33:37.769Z,59.50
2023-11-24T19:36:06.547Z,59.50
2023-11-24T19:38:35.950Z,59.50
2023-11-24T19:41:03.882Z,59.90
2023-11-24T19:43:31.901Z,59.90
2023-11-24T19:45:59.858Z,60.20
2023-11-24T19:48:30.788Z,60.70
2023-11-24T19:50:58.950Z,61.30
2023-11-24T19:53:26.927Z,61.40
2023-11-24T19:55:56.377Z,61.80
2023-11-24T19:58:24.256Z,62.10
2023-11-24T20:00:52.357Z,62.20
2023-11-24T20:03:20.638Z,62.40
2023-11-24T20:05:48.860Z,62.40
2023-11-24T20:08:16.946Z,62.60
2023-11-24T20:10:44.787Z,62.60
2023-11-24T20:13:14.254Z,62.50
2023-11-24T20:15:44.047Z,62.50
2023-11-24T20:18:12.112Z,62.50
2023-11-24T20:20:40.452Z,62.60
2023-11-24T20:23:09.285Z,62.50
2023-11-24T20:25:37.984Z,62.50
2023-11-24T20:28:08.828Z,62.60
2023-11-24T20:30:38.034Z,62.50
2023-11-24T20:33:06.455Z,62.60
2023-11-24T20:35:34.292Z,62.70
2023-11-24T20:38:02.432Z,62.60
2023-11-24T20:40:30.353Z,62.60
2023-11-24T20:42:58.249Z,62.70
2023-11-24T20:45:26.153Z,62.40
2023-11-24T20:47:56.420Z,62.50
2023-11-24T20:50:24.922Z,62.50
2023-11-24T20:52:52.823Z,62.50
2023-11-24T20:55:20.829Z,62.50
2023-11-24T20:57:48.738Z,62.60
2023-11-24T21:00:19.527Z,62.60
2023-11-24T21:02:47.514Z,62.60
2023-11-24T21:05:16.896Z,62.50
2023-11-24T21:07:44.727Z,62.60
2023-11-24T21:10:13.541Z,62.50
2023-11-24T21:12:42.909Z,62.60
2023-11-24T21:15:12.179Z,62.40
2023-11-24T21:17:40.459Z,62.40
2023-11-24T21:20:10.743Z,62.60
2023-11-24T21:22:48.957Z,62.70
2023-11-24T21:25:17.749Z,63.00
2023-11-24T21:27:45.601Z,63.20
2023-11-24T21:30:14.608Z,63.50
2023-11-24T21:32:42.749Z,63.60
2023-11-24T21:35:10.756Z,63.80
2023-11-24T21:37:40.053Z,64.10
2023-11-24T21:40:12.201Z,64.30
2023-11-24T21:42:41.639Z,64.50
2023-11-24T21:45:11.013Z,64.60
2023-11-24T21:47:39.029Z,64.80
2023-11-24T21:50:08.017Z,65.00
2023-11-24T21:52:36.732Z,64.90
2023-11-24T21:55:07.695Z,65.10
2023-11-24T21:57:35.616Z,65.30
2023-11-24T22:00:06.167Z,65.50
2023-11-24T22:02:39.321Z,65.50
2023-11-24T22:05:10.189Z,65.60
2023-11-24T22:07:38.467Z,65.50
2023-11-24T22:10:09.530Z,65.60
2023-11-24T22:12:39.450Z,65.20
2023-11-24T22:15:09.600Z,55.10
2023-11-24T22:17:38.448Z,55.20
2023-11-24T22:20:11.773Z,58.50
2023-11-24T22:22:40.516Z,58.70
2023-11-24T22:25:10.866Z,58.90
2023-11-24T22:27:38.971Z,59.00
2023-11-24T22:30:08.288Z,59.10
2023-11-24T22:32:36.823Z,59.20
2023-11-24T22:35:05.252Z,59.30
2023-11-24T22:37:34.167Z,59.40
2023-11-24T22:40:02.361Z,59.50
2023-11-24T22:42:31.605Z,59.60
2023-11-24T22:45:00.006Z,59.70
2023-11-24T22:47:28.018Z,59.90
2023-11-24T22:49:55.914Z,59.90
2023-11-24T22:52:23.818Z,60.00
2023-11-24T22:54:51.695Z,60.10
2023-11-24T22:57:19.748Z,60.10
2023-11-24T22:59:51.281Z,60.30
2023-11-24T23:02:19.582Z,60.30
2023-11-24T23:04:48.430Z,60.50
2023-11-24T23:07:19.111Z,60.60
2023-11-24T23:09:47.012Z,60.80
2023-11-24T23:12:15.188Z,60.70
2023-11-24T23:14:43.081Z,60.70
2023-11-24T23:17:13.262Z,60.70
2023-11-24T23:19:41.623Z,60.80
2023-11-24T23:22:09.862Z,60.80
2023-11-24T23:24:37.990Z,60.90
2023-11-24T23:27:07.689Z,60.90
2023-11-24T23:29:35.908Z,60.90
2023-11-24T23:32:05.496Z,60.90
2023-11-24T23:34:35.064Z,61.00
2023-11-24T23:37:04.529Z,61.10
2023-11-24T23:39:35.194Z,61.10
2023-11-24T23:42:03.565Z,61.10
2023-11-24T23:44:31.450Z,61.10
2023-11-24T23:46:59.441Z,61.20
2023-11-24T23:49:27.331Z,61.20
2023-11-24T23:51:56.802Z,61.20
2023-11-24T23:54:25.030Z,61.20
2023-11-24T23:56:52.173Z,61.30
2023-11-24T23:59:20.454Z,61.30
